createdAt,value
2022-09-20T00:01:28.362Z,11.80
2022-09-20T00:04:17.019Z,11.70
2022-09-20T00:07:07.426Z,11.80
2022-09-20T00:09:57.017Z,11.80
2022-09-20T00:12:45.723Z,11.80
2022-09-20T00:15:35.290Z,11.80
2022-09-20T00:18:23.926Z,11.70
2022-09-20T00:21:17.573Z,11.70
2022-09-20T00:24:07.898Z,11.60
2022-09-20T00:26:56.576Z,11.60
2022-09-20T00:29:45.063Z,11.70
2022-09-20T00:32:33.734Z,11.60
2022-09-20T00:35:21.261Z,11.70
2022-09-20T00:38:10.933Z,11.70
2022-09-20T00:41:00.962Z,11.60
2022-09-20T00:43:49.363Z,11.70
2022-09-20T00:46:42.232Z,11.70
2022-09-20T00:49:31.597Z,11.70
2022-09-20T00:52:20.652Z,11.80
2022-09-20T00:55:11.389Z,11.80
2022-09-20T00:58:01.786Z,11.70
2022-09-20T01:00:52.057Z,11.70
2022-09-20T01:03:42.066Z,11.60
2022-09-20T01:06:31.721Z,11.70
2022-09-20T01:09:20.301Z,11.70
2022-09-20T01:12:15.071Z,11.60
2022-09-20T01:15:06.842Z,11.60
2022-09-20T01:17:59.109Z,11.60
2022-09-20T01:20:49.435Z,11.70
2022-09-20T01:23:48.192Z,11.70
2022-09-20T01:26:59.884Z,11.60
2022-09-20T01:30:04.374Z,11.60
2022-09-20T01:33:08.513Z,11.60
2022-09-20T01:35:59.929Z,11.50
2022-09-20T01:38:57.125Z,11.60
2022-09-20T01:41:49.881Z,11.50
2022-09-20T01:44:44.705Z,11.50
2022-09-20T01:47:41.403Z,11.50
2022-09-20T01:50:36.344Z,11.50
2022-09-20T01:53:50.075Z,11.60
2022-09-20T01:57:14.517Z,11.50
2022-09-20T02:00:12.042Z,11.60
2022-09-20T02:03:51.873Z,11.50
2022-09-20T02:07:06.472Z,11.50
2022-09-20T02:10:13.749Z,11.50
2022-09-20T02:13:05.706Z,11.40
2022-09-20T02:16:26.738Z,11.20
2022-09-20T02:19:34.234Z,11.30
2022-09-20T02:22:44.229Z,11.30
2022-09-20T02:25:54.321Z,11.30
2022-09-20T02:28:55.734Z,11.30
2022-09-20T02:32:01.737Z,11.30
2022-09-20T02:35:13.739Z,11.30
2022-09-20T02:38:12.798Z,11.30
2022-09-20T02:41:30.599Z,11.20
2022-09-20T02:44:41.022Z,11.20
2022-09-20T02:47:34.563Z,11.20
2022-09-20T02:50:30.795Z,11.10
2022-09-20T02:53:34.001Z,11.20
2022-09-20T02:56:30.932Z,11.20
2022-09-20T02:59:28.991Z,11.20
2022-09-20T03:02:25.130Z,11.30
2022-09-20T03:05:20.046Z,11.30
2022-09-20T03:08:21.965Z,11.30
2022-09-20T03:11:19.803Z,11.40
2022-09-20T03:14:16.014Z,11.30
2022-09-20T03:17:15.271Z,11.30
2022-09-20T03:20:16.326Z,11.30
2022-09-20T03:23:15.045Z,11.30
2022-09-20T03:26:15.056Z,11.30
2022-09-20T03:29:10.368Z,11.30
2022-09-20T03:32:14.001Z,11.30
2022-09-20T03:35:15.609Z,11.30
2022-09-20T03:38:20.856Z,11.30
2022-09-20T03:41:25.875Z,11.30
2022-09-20T03:44:43.137Z,11.40
2022-09-20T03:47:47.907Z,11.40
2022-09-20T03:51:02.055Z,11.30
2022-09-20T03:54:17.187Z,11.40
2022-09-20T03:57:39.336Z,11.30
2022-09-20T04:00:39.836Z,11.20
2022-09-20T04:03:37.483Z,11.30
2022-09-20T04:06:43.520Z,11.30
2022-09-20T04:10:07.972Z,11.30
2022-09-20T04:13:13.193Z,11.30
2022-09-20T04:16:27.672Z,11.30
2022-09-20T04:19:23.030Z,11.30
2022-09-20T04:22:11.948Z,11.30
2022-09-20T04:25:06.870Z,11.30
2022-09-20T04:27:59.802Z,11.40
2022-09-20T04:30:49.167Z,11.40
2022-09-20T04:33:44.513Z,11.50
2022-09-20T04:36:50.775Z,11.40
2022-09-20T04:39:48.743Z,11.30
2022-09-20T04:43:10.721Z,11.40
2022-09-20T04:46:18.382Z,11.30
2022-09-20T04:49:35.926Z,11.30
2022-09-20T04:52:55.326Z,11.30
2022-09-20T04:55:52.247Z,11.30
2022-09-20T04:58:48.219Z,11.30
2022-09-20T05:02:23.797Z,11.40
2022-09-20T05:05:35.882Z,11.30
2022-09-20T05:09:06.918Z,11.40
2022-09-20T05:12:13.047Z,11.40
2022-09-20T05:15:11.666Z,11.50
2022-09-20T05:18:21.632Z,11.50
2022-09-20T05:21:24.722Z,11.50
2022-09-20T05:24:26.436Z,11.50
2022-09-20T05:27:34.836Z,11.50
2022-09-20T05:30:33.803Z,11.50
2022-09-20T05:33:29.954Z,11.60
2022-09-20T05:36:34.343Z,11.70
2022-09-20T05:39:37.874Z,11.70
2022-09-20T05:42:39.363Z,11.60
2022-09-20T05:45:58.953Z,11.70
2022-09-20T05:48:56.488Z,11.70
2022-09-20T05:52:01.260Z,11.70
2022-09-20T05:55:09.282Z,11.70
2022-09-20T05:58:31.957Z,11.70
2022-09-20T06:01:27.040Z,11.70
2022-09-20T06:04:19.980Z,11.70
2022-09-20T06:07:21.676Z,11.70
2022-09-20T06:10:34.188Z,11.60
2022-09-20T06:13:39.839Z,11.80
2022-09-20T06:16:39.385Z,11.80
2022-09-20T06:19:36.378Z,11.80
2022-09-20T06:22:29.673Z,11.80
2022-09-20T06:25:23.725Z,11.70
2022-09-20T06:28:17.626Z,11.70
2022-09-20T06:31:11.342Z,11.80
2022-09-20T06:34:05.036Z,11.80
2022-09-20T06:37:18.305Z,11.80
2022-09-20T06:40:50.273Z,11.80
2022-09-20T06:43:41.625Z,11.80
2022-09-20T06:46:31.633Z,11.90
2022-09-20T06:49:20.033Z,11.90
2022-09-20T06:52:10.883Z,11.80
2022-09-20T06:54:59.308Z,11.90
2022-09-20T06:57:51.590Z,11.80
2022-09-20T07:00:40.762Z,11.90
2022-09-20T07:03:29.186Z,12.00
2022-09-20T07:06:19.863Z,12.10
2022-09-20T07:09:08.630Z,12.20
2022-09-20T07:11:59.093Z,12.10
2022-09-20T07:14:50.684Z,12.20
2022-09-20T07:17:39.038Z,12.20
2022-09-20T07:20:27.578Z,12.30
2022-09-20T07:23:16.976Z,12.30
2022-09-20T07:26:05.753Z,12.10
2022-09-20T07:28:54.743Z,12.20
2022-09-20T07:31:45.158Z,12.30
2022-09-20T07:34:33.652Z,12.30
2022-09-20T07:37:22.484Z,12.30
2022-09-20T07:40:12.566Z,12.30
2022-09-20T07:43:00.952Z,12.30
2022-09-20T07:45:52.626Z,12.40
2022-09-20T07:48:43.179Z,12.40
2022-09-20T07:51:32.343Z,12.50
2022-09-20T07:54:21.237Z,12.50
2022-09-20T07:57:09.661Z,12.50
2022-09-20T07:59:58.069Z,12.60
2022-09-20T08:02:46.361Z,12.70
2022-09-20T08:05:36.451Z,12.90
2022-09-20T08:08:25.053Z,13.00
2022-09-20T08:11:16.216Z,13.10
2022-09-20T08:14:06.889Z,13.20
2022-09-20T08:17:00.273Z,13.10
2022-09-20T08:19:48.737Z,13.20
2022-09-20T08:22:42.185Z,13.20
2022-09-20T08:25:30.716Z,13.40
2022-09-20T08:28:19.367Z,13.60
2022-09-20T08:31:09.896Z,13.50
2022-09-20T08:33:59.064Z,13.40
2022-09-20T08:36:51.815Z,13.30
2022-09-20T08:39:58.423Z,13.20
2022-09-20T08:42:47.468Z,13.20
2022-09-20T08:45:35.851Z,13.20
2022-09-20T08:48:32.977Z,13.20
2022-09-20T08:51:23.439Z,13.30
2022-09-20T08:54:16.309Z,13.30
2022-09-20T08:57:15.659Z,13.20
2022-09-20T09:00:07.570Z,13.30
2022-09-20T09:02:59.001Z,13.40
2022-09-20T09:05:49.243Z,13.50
2022-09-20T09:08:40.011Z,13.50
2022-09-20T09:11:28.411Z,13.60
2022-09-20T09:14:46.050Z,13.60
2022-09-20T09:17:35.312Z,13.40
2022-09-20T09:20:25.088Z,13.30
2022-09-20T09:23:26.057Z,13.40
2022-09-20T09:26:19.124Z,13.30
2022-09-20T09:29:17.624Z,13.20
2022-09-20T09:32:23.801Z,13.30
2022-09-20T09:35:25.484Z,13.40
2022-09-20T09:38:23.529Z,13.40
2022-09-20T09:41:29.971Z,13.40
2022-09-20T09:44:24.931Z,13.40
2022-09-20T09:47:28.196Z,13.60
2022-09-20T09:50:24.197Z,13.70
2022-09-20T09:53:16.659Z,13.60
2022-09-20T09:56:47.663Z,13.70
2022-09-20T09:59:57.623Z,13.70
2022-09-20T10:03:18.747Z,13.70
2022-09-20T10:06:16.839Z,13.90
2022-09-20T10:09:20.166Z,14.00
2022-09-20T10:12:22.179Z,14.20
2022-09-20T10:15:29.605Z,14.30
2022-09-20T10:18:32.764Z,14.20
2022-09-20T10:24:40.628Z,14.60
2022-09-20T10:27:42.107Z,14.80
2022-09-20T10:30:42.939Z,14.90
2022-09-20T10:33:39.491Z,15.00
2022-09-20T10:36:33.385Z,15.20
2022-09-20T10:39:28.088Z,15.20
2022-09-20T10:42:46.155Z,15.20
2022-09-20T10:49:03.645Z,15.20
2022-09-20T10:52:03.419Z,15.40
2022-09-20T10:55:15.493Z,15.50
2022-09-20T10:58:47.149Z,15.70
2022-09-20T11:01:44.249Z,16.10
2022-09-20T11:04:56.529Z,16.00
2022-09-20T11:07:56.188Z,15.90
2022-09-20T11:10:49.634Z,15.90
2022-09-20T11:13:45.804Z,15.90
2022-09-20T11:16:41.918Z,15.60
2022-09-20T11:19:36.351Z,15.60
2022-09-20T11:22:32.801Z,15.70
2022-09-20T11:25:34.303Z,15.70
2022-09-20T11:28:28.403Z,15.90
2022-09-20T11:31:24.653Z,15.80
2022-09-20T11:34:19.478Z,15.40
2022-09-20T11:37:08.006Z,15.50
2022-09-20T11:40:02.676Z,15.60
2022-09-20T11:42:52.624Z,15.70
2022-09-20T11:45:43.227Z,15.90
2022-09-20T11:48:35.340Z,16.00
2022-09-20T11:51:45.461Z,16.10
2022-09-20T11:55:10.900Z,16.00
2022-09-20T11:58:03.686Z,15.90
2022-09-20T12:00:56.658Z,16.00
2022-09-20T12:04:00.115Z,16.40
2022-09-20T12:07:06.055Z,16.50
2022-09-20T12:10:01.289Z,16.50
2022-09-20T12:12:51.235Z,16.30
2022-09-20T12:15:44.253Z,16.30
2022-09-20T12:18:48.878Z,16.30
2022-09-20T12:22:13.781Z,16.30
2022-09-20T12:25:38.521Z,16.30
2022-09-20T12:28:35.308Z,16.20
2022-09-20T12:31:48.465Z,16.10
2022-09-20T12:34:38.305Z,15.90
2022-09-20T12:37:28.078Z,15.90
2022-09-20T12:40:19.296Z,15.80
2022-09-20T12:43:18.173Z,15.70
2022-09-20T12:46:11.845Z,15.70
2022-09-20T12:50:09.425Z,15.80
2022-09-20T12:53:04.246Z,16.00
2022-09-20T12:55:56.382Z,16.30
2022-09-20T12:58:53.656Z,16.60
2022-09-20T13:01:43.669Z,16.70
2022-09-20T13:05:02.363Z,16.80
2022-09-20T13:07:59.540Z,17.00
2022-09-20T13:10:56.188Z,17.20
2022-09-20T13:13:49.246Z,17.10
2022-09-20T13:16:47.589Z,17.00
2022-09-20T13:19:39.049Z,16.90
2022-09-20T13:22:30.474Z,16.80
2022-09-20T13:25:22.462Z,16.70
2022-09-20T13:28:25.681Z,16.50
2022-09-20T13:31:32.698Z,16.40
2022-09-20T13:34:23.883Z,16.20
2022-09-20T13:37:21.168Z,16.00
2022-09-20T13:40:19.665Z,15.80
2022-09-20T13:43:24.103Z,15.60
2022-09-20T13:46:16.487Z,15.60
2022-09-20T13:49:17.637Z,15.30
2022-09-20T13:52:23.582Z,15.30
2022-09-20T13:55:27.496Z,15.30
2022-09-20T13:58:24.104Z,15.00
2022-09-20T14:01:24.195Z,15.00
2022-09-20T14:04:17.437Z,14.90
2022-09-20T14:07:08.552Z,14.80
2022-09-20T14:09:58.278Z,14.60
2022-09-20T14:12:49.251Z,14.50
2022-09-20T14:15:42.215Z,14.50
2022-09-20T14:18:31.571Z,14.40
2022-09-20T14:21:25.140Z,14.50
2022-09-20T14:24:32.197Z,14.50
2022-09-20T14:27:22.561Z,14.50
2022-09-20T14:30:30.558Z,14.50
2022-09-20T14:33:21.951Z,14.50
2022-09-20T14:36:15.788Z,14.60
2022-09-20T14:39:06.202Z,14.60
2022-09-20T14:41:55.566Z,14.60
2022-09-20T14:44:44.168Z,14.60
2022-09-20T14:47:39.507Z,14.70
2022-09-20T14:50:32.777Z,14.70
2022-09-20T14:53:27.611Z,14.80
2022-09-20T14:56:17.252Z,14.80
2022-09-20T14:59:21.534Z,14.80
2022-09-20T15:02:14.930Z,14.80
2022-09-20T15:05:03.789Z,14.80
2022-09-20T15:07:54.697Z,14.80
2022-09-20T15:10:43.139Z,14.60
2022-09-20T15:13:32.124Z,14.30
2022-09-20T15:16:21.736Z,14.40
2022-09-20T15:19:10.953Z,14.40
2022-09-20T15:22:00.671Z,14.40
2022-09-20T15:24:50.828Z,14.50
2022-09-20T15:27:39.527Z,14.50
2022-09-20T15:30:28.055Z,14.50
2022-09-20T15:33:17.084Z,14.40
2022-09-20T15:36:06.443Z,14.50
2022-09-20T15:38:55.339Z,14.50
2022-09-20T15:41:46.171Z,14.50
2022-09-20T15:44:34.582Z,14.50
2022-09-20T15:47:23.153Z,14.60
2022-09-20T15:50:12.104Z,14.50
2022-09-20T15:53:00.904Z,14.40
2022-09-20T15:55:49.339Z,14.40
2022-09-20T15:58:39.277Z,14.30
2022-09-20T16:01:30.135Z,14.10
2022-09-20T16:04:20.378Z,14.10
2022-09-20T16:07:09.754Z,14.10
2022-09-20T16:09:58.713Z,13.90
2022-09-20T16:12:47.401Z,14.00
2022-09-20T16:15:38.889Z,13.80
2022-09-20T16:18:47.547Z,13.70
2022-09-20T16:21:37.734Z,13.70
2022-09-20T16:24:27.269Z,13.80
2022-09-20T16:27:18.763Z,13.70
2022-09-20T16:30:09.300Z,13.70
2022-09-20T16:33:01.848Z,13.80
2022-09-20T16:35:50.322Z,13.80
2022-09-20T16:38:43.594Z,13.70
2022-09-20T16:41:32.893Z,13.70
2022-09-20T16:44:21.531Z,13.70
2022-09-20T16:47:14.365Z,13.70
2022-09-20T16:50:04.400Z,13.70
2022-09-20T16:52:52.938Z,13.80
2022-09-20T16:55:45.548Z,13.80
2022-09-20T16:58:35.445Z,13.80
2022-09-20T17:01:24.660Z,13.80
2022-09-20T17:04:14.617Z,13.90
2022-09-20T17:07:04.638Z,13.90
2022-09-20T17:10:01.039Z,13.90
2022-09-20T17:12:52.524Z,13.90
2022-09-20T17:15:41.653Z,13.80
2022-09-20T17:18:30.854Z,13.80
2022-09-20T17:21:20.343Z,13.80
2022-09-20T17:24:11.074Z,13.80
2022-09-20T17:27:01.984Z,13.70
2022-09-20T17:29:51.419Z,13.70
2022-09-20T17:32:40.056Z,13.70
2022-09-20T17:35:29.612Z,13.70
2022-09-20T17:38:18.115Z,13.80
2022-09-20T17:41:09.898Z,13.80
2022-09-20T17:43:59.764Z,13.80
2022-09-20T17:46:50.704Z,13.70
2022-09-20T17:49:41.193Z,13.70
2022-09-20T17:52:29.720Z,13.70
2022-09-20T17:55:18.728Z,13.70
2022-09-20T17:58:08.537Z,13.60
2022-09-20T18:01:03.936Z,13.60
2022-09-20T18:03:53.174Z,13.60
2022-09-20T18:06:43.337Z,13.60
2022-09-20T18:09:32.904Z,13.50
2022-09-20T18:12:21.664Z,13.50
2022-09-20T18:15:11.846Z,13.50
2022-09-20T18:18:00.364Z,13.50
2022-09-20T18:20:49.128Z,13.50
2022-09-20T18:23:37.743Z,13.50
2022-09-20T18:26:27.700Z,13.40
2022-09-20T18:29:18.331Z,13.40
2022-09-20T18:32:09.188Z,13.40
2022-09-20T18:34:58.286Z,13.40
2022-09-20T18:37:47.589Z,13.40
2022-09-20T18:40:38.705Z,13.30
2022-09-20T18:43:30.518Z,13.40
2022-09-20T18:46:23.982Z,13.30
2022-09-20T18:49:17.036Z,13.30
2022-09-20T18:52:05.963Z,13.20
2022-09-20T18:54:56.156Z,13.30
2022-09-20T18:57:45.295Z,13.30
2022-09-20T19:00:34.830Z,13.20
2022-09-20T19:03:28.889Z,13.10
2022-09-20T19:06:25.163Z,13.10
2022-09-20T19:09:23.445Z,13.20
2022-09-20T19:12:20.575Z,13.20
2022-09-20T19:15:24.409Z,13.20
2022-09-20T19:18:26.617Z,13.20
2022-09-20T19:21:26.739Z,13.20
2022-09-20T19:24:26.237Z,13.20
2022-09-20T19:27:15.363Z,13.10
2022-09-20T19:30:04.642Z,13.00
2022-09-20T19:32:53.589Z,13.00
2022-09-20T19:35:49.322Z,13.00
2022-09-20T19:38:49.824Z,13.00
2022-09-20T19:41:47.488Z,13.10
2022-09-20T19:44:47.403Z,13.10
2022-09-20T19:47:46.594Z,13.10
2022-09-20T19:50:41.137Z,13.10
2022-09-20T19:53:30.675Z,13.10
2022-09-20T19:56:24.955Z,13.20
2022-09-20T19:59:14.207Z,13.20
2022-09-20T20:02:03.415Z,13.20
2022-09-20T20:04:52.858Z,13.10
2022-09-20T20:07:48.779Z,13.10
2022-09-20T20:10:54.428Z,13.10
2022-09-20T20:14:07.210Z,13.10
2022-09-20T20:17:07.620Z,13.10
2022-09-20T20:20:07.307Z,13.10
2022-09-20T20:23:23.584Z,13.10
2022-09-20T20:26:20.252Z,13.10
2022-09-20T20:29:12.079Z,13.00
2022-09-20T20:32:00.525Z,13.00
2022-09-20T20:34:49.057Z,12.90
2022-09-20T20:37:40.201Z,12.90
2022-09-20T20:40:28.730Z,12.90
2022-09-20T20:43:18.399Z,12.80
2022-09-20T20:46:09.662Z,12.80
2022-09-20T20:48:58.654Z,12.80
2022-09-20T20:51:47.635Z,12.80
2022-09-20T20:54:36.110Z,12.80
2022-09-20T20:57:25.657Z,12.70
2022-09-20T21:00:15.299Z,12.70
2022-09-20T21:03:05.774Z,12.70
2022-09-20T21:05:54.913Z,12.70
2022-09-20T21:08:48.988Z,12.70
2022-09-20T21:11:40.513Z,12.60
2022-09-20T21:14:29.913Z,12.60
2022-09-20T21:17:18.527Z,12.60
2022-09-20T21:20:09.846Z,12.60
2022-09-20T21:22:58.288Z,12.60
2022-09-20T21:25:46.715Z,12.60
2022-09-20T21:28:37.451Z,12.60
2022-09-20T21:31:27.571Z,12.60
2022-09-20T21:34:17.393Z,12.50
2022-09-20T21:37:07.501Z,12.50
2022-09-20T21:39:55.984Z,12.50
2022-09-20T21:42:44.510Z,12.40
2022-09-20T21:45:33.657Z,12.40
2022-09-20T21:48:22.071Z,12.30
2022-09-20T21:51:12.062Z,12.40
2022-09-20T21:54:02.951Z,12.30
2022-09-20T21:56:55.675Z,12.30
2022-09-20T21:59:44.085Z,12.30
2022-09-20T22:02:34.368Z,12.30
2022-09-20T22:05:22.839Z,12.30
2022-09-20T22:08:12.731Z,12.30
2022-09-20T22:11:03.201Z,12.30
2022-09-20T22:13:53.171Z,12.30
2022-09-20T22:16:43.538Z,12.20
2022-09-20T22:19:32.233Z,12.30
2022-09-20T22:22:20.997Z,12.30
2022-09-20T22:25:09.963Z,12.20
2022-09-20T22:27:59.648Z,12.20
2022-09-20T22:30:48.125Z,12.10
2022-09-20T22:33:37.355Z,12.10
2022-09-20T22:36:27.911Z,12.20
2022-09-20T22:39:17.136Z,12.10
2022-09-20T22:42:05.912Z,12.10
2022-09-20T22:44:55.806Z,12.10
2022-09-20T22:47:45.203Z,12.20
2022-09-20T22:50:34.313Z,12.10
2022-09-20T22:53:22.733Z,12.20
2022-09-20T22:56:13.488Z,12.20
2022-09-20T22:59:05.661Z,12.20
2022-09-20T23:01:55.938Z,12.20
2022-09-20T23:04:44.453Z,12.10
2022-09-20T23:07:32.976Z,12.10
2022-09-20T23:10:21.511Z,12.10
2022-09-20T23:13:09.916Z,12.10
2022-09-20T23:15:58.773Z,12.20
2022-09-20T23:18:50.128Z,12.20
2022-09-20T23:21:40.163Z,12.10
2022-09-20T23:24:28.543Z,12.20
2022-09-20T23:27:17.551Z,12.10
2022-09-20T23:30:07.444Z,12.10
2022-09-20T23:32:56.043Z,12.20
2022-09-20T23:35:46.809Z,12.20
2022-09-20T23:38:35.483Z,12.10
2022-09-20T23:41:25.363Z,12.10
2022-09-20T23:44:13.899Z,12.10
2022-09-20T23:47:02.319Z,12.00
2022-09-20T23:49:50.704Z,12.00
2022-09-20T23:52:40.399Z,12.10
2022-09-20T23:55:28.937Z,12.10
2022-09-20T23:58:18.183Z,12.10
